sensor_id;sensor_type;location;lat;lon;timestamp;P1;durP1;ratioP1;P2;durP2;ratioP2
19343;SDS011;9808;52.402;16.678;2023-01-09T00:00:27;48.47;;;22.30;;
19343;SDS011;9808;52.402;16.678;2023-01-09T00:02:55;59.70;;;24.27;;
19343;SDS011;9808;52.402;16.678;2023-01-09T00:05:22;53.37;;;21.90;;
19343;SDS011;9808;52.402;16.678;2023-01-09T00:07:49;58.70;;;23.70;;
19343;SDS011;9808;52.402;16.678;2023-01-09T00:10:16;56.07;;;22.67;;
19343;SDS011;9808;52.402;16.678;2023-01-09T00:12:43;51.37;;;22.57;;
19343;SDS011;9808;52.402;16.678;2023-01-09T00:15:11;50.70;;;22.30;;
19343;SDS011;9808;52.402;16.678;2023-01-09T00:17:38;58.23;;;22.93;;
19343;SDS011;9808;52.402;16.678;2023-01-09T00:20:06;57.67;;;23.03;;
19343;SDS011;9808;52.402;16.678;2023-01-09T00:22:35;61.73;;;24.13;;
19343;SDS011;9808;52.402;16.678;2023-01-09T00:25:03;51.27;;;22.37;;
19343;SDS011;9808;52.402;16.678;2023-01-09T00:27:31;50.17;;;21.50;;
19343;SDS011;9808;52.402;16.678;2023-01-09T00:29:58;55.63;;;23.77;;
19343;SDS011;9808;52.402;16.678;2023-01-09T00:32:26;53.80;;;23.20;;
19343;SDS011;9808;52.402;16.678;2023-01-09T00:34:54;65.90;;;25.67;;
19343;SDS011;9808;52.402;16.678;2023-01-09T00:37:21;58.23;;;25.13;;
19343;SDS011;9808;52.402;16.678;2023-01-09T00:39:49;59.93;;;25.23;;
19343;SDS011;9808;52.402;16.678;2023-01-09T00:42:20;64.07;;;25.00;;
19343;SDS011;9808;52.402;16.678;2023-01-09T00:44:49;64.57;;;25.10;;
19343;SDS011;9808;52.402;16.678;2023-01-09T00:47:51;57.57;;;23.73;;
19343;SDS011;9808;52.402;16.678;2023-01-09T00:50:21;56.07;;;23.60;;
19343;SDS011;9808;52.402;16.678;2023-01-09T00:52:49;57.30;;;23.90;;
19343;SDS011;9808;52.402;16.678;2023-01-09T00:55:17;54.60;;;22.83;;
19343;SDS011;9808;52.402;16.678;2023-01-09T00:57:44;54.63;;;21.07;;
19343;SDS011;9808;52.402;16.678;2023-01-09T01:00:12;46.20;;;21.13;;
19343;SDS011;9808;52.402;16.678;2023-01-09T01:02:39;46.83;;;21.97;;
19343;SDS011;9808;52.402;16.678;2023-01-09T01:05:07;47.50;;;20.80;;
19343;SDS011;9808;52.402;16.678;2023-01-09T01:07:53;44.03;;;20.87;;
19343;SDS011;9808;52.402;16.678;2023-01-09T01:10:22;50.83;;;21.87;;
19343;SDS011;9808;52.402;16.678;2023-01-09T01:12:50;45.83;;;20.40;;
19343;SDS011;9808;52.402;16.678;2023-01-09T01:15:18;48.77;;;21.53;;
19343;SDS011;9808;52.402;16.678;2023-01-09T01:17:45;51.17;;;20.73;;
19343;SDS011;9808;52.402;16.678;2023-01-09T01:20:14;46.67;;;20.13;;
19343;SDS011;9808;52.402;16.678;2023-01-09T01:22:42;49.33;;;21.23;;
19343;SDS011;9808;52.402;16.678;2023-01-09T01:25:10;49.00;;;21.93;;
19343;SDS011;9808;52.402;16.678;2023-01-09T01:27:37;44.77;;;21.30;;
19343;SDS011;9808;52.402;16.678;2023-01-09T01:30:05;46.17;;;21.03;;
19343;SDS011;9808;52.402;16.678;2023-01-09T01:32:35;40.83;;;20.07;;
19343;SDS011;9808;52.402;16.678;2023-01-09T01:35:02;46.13;;;20.30;;
19343;SDS011;9808;52.402;16.678;2023-01-09T01:37:30;43.83;;;19.83;;
19343;SDS011;9808;52.402;16.678;2023-01-09T01:39:57;48.37;;;20.53;;
19343;SDS011;9808;52.402;16.678;2023-01-09T01:42:24;49.23;;;19.73;;
19343;SDS011;9808;52.402;16.678;2023-01-09T01:47:22;46.43;;;20.90;;
19343;SDS011;9808;52.402;16.678;2023-01-09T01:49:51;48.50;;;20.77;;
19343;SDS011;9808;52.402;16.678;2023-01-09T01:52:18;44.03;;;20.17;;
19343;SDS011;9808;52.402;16.678;2023-01-09T01:54:46;45.30;;;21.40;;
19343;SDS011;9808;52.402;16.678;2023-01-09T01:57:14;44.13;;;20.33;;
19343;SDS011;9808;52.402;16.678;2023-01-09T01:59:43;49.53;;;21.53;;
19343;SDS011;9808;52.402;16.678;2023-01-09T02:02:18;47.50;;;21.83;;
19343;SDS011;9808;52.402;16.678;2023-01-09T02:04:47;49.90;;;21.40;;
19343;SDS011;9808;52.402;16.678;2023-01-09T02:07:15;45.40;;;20.87;;
19343;SDS011;9808;52.402;16.678;2023-01-09T02:09:42;45.50;;;21.17;;
19343;SDS011;9808;52.402;16.678;2023-01-09T02:12:28;47.47;;;21.23;;
19343;SDS011;9808;52.402;16.678;2023-01-09T02:22:40;45.33;;;20.93;;
19343;SDS011;9808;52.402;16.678;2023-01-09T02:33:44;52.37;;;22.60;;
19343;SDS011;9808;52.402;16.678;2023-01-09T02:38:29;53.60;;;21.47;;
19343;SDS011;9808;52.402;16.678;2023-01-09T02:40:59;48.30;;;21.67;;
19343;SDS011;9808;52.402;16.678;2023-01-09T02:43:28;48.30;;;21.23;;
19343;SDS011;9808;52.402;16.678;2023-01-09T02:45:56;47.60;;;21.47;;
19343;SDS011;9808;52.402;16.678;2023-01-09T02:48:23;49.27;;;22.70;;
19343;SDS011;9808;52.402;16.678;2023-01-09T02:51:05;46.80;;;20.60;;
19343;SDS011;9808;52.402;16.678;2023-01-09T02:56:29;43.60;;;20.37;;
19343;SDS011;9808;52.402;16.678;2023-01-09T02:59:02;45.30;;;21.23;;
19343;SDS011;9808;52.402;16.678;2023-01-09T03:06:46;42.63;;;20.90;;
19343;SDS011;9808;52.402;16.678;2023-01-09T03:09:19;49.73;;;20.50;;
19343;SDS011;9808;52.402;16.678;2023-01-09T03:14:51;49.73;;;22.37;;
19343;SDS011;9808;52.402;16.678;2023-01-09T03:17:21;46.80;;;21.80;;
19343;SDS011;9808;52.402;16.678;2023-01-09T03:19:51;51.93;;;23.07;;
19343;SDS011;9808;52.402;16.678;2023-01-09T03:22:19;45.87;;;21.10;;
19343;SDS011;9808;52.402;16.678;2023-01-09T03:24:46;44.27;;;21.73;;
19343;SDS011;9808;52.402;16.678;2023-01-09T03:27:13;46.37;;;22.20;;
19343;SDS011;9808;52.402;16.678;2023-01-09T03:29:40;49.97;;;21.77;;
19343;SDS011;9808;52.402;16.678;2023-01-09T03:32:08;51.97;;;22.40;;
19343;SDS011;9808;52.402;16.678;2023-01-09T03:34:35;49.80;;;22.67;;
19343;SDS011;9808;52.402;16.678;2023-01-09T03:37:02;50.50;;;22.63;;
19343;SDS011;9808;52.402;16.678;2023-01-09T03:39:30;47.70;;;22.10;;
19343;SDS011;9808;52.402;16.678;2023-01-09T03:41:58;47.43;;;22.40;;
19343;SDS011;9808;52.402;16.678;2023-01-09T03:44:25;44.60;;;21.50;;
19343;SDS011;9808;52.402;16.678;2023-01-09T03:46:52;48.83;;;23.30;;
19343;SDS011;9808;52.402;16.678;2023-01-09T03:49:19;45.00;;;22.33;;
19343;SDS011;9808;52.402;16.678;2023-01-09T03:51:46;47.57;;;21.97;;
19343;SDS011;9808;52.402;16.678;2023-01-09T03:54:14;48.93;;;22.33;;
19343;SDS011;9808;52.402;16.678;2023-01-09T03:56:41;49.57;;;23.83;;
19343;SDS011;9808;52.402;16.678;2023-01-09T03:59:08;51.97;;;23.43;;
19343;SDS011;9808;52.402;16.678;2023-01-09T04:01:35;52.10;;;23.40;;
19343;SDS011;9808;52.402;16.678;2023-01-09T04:04:03;48.87;;;22.53;;
19343;SDS011;9808;52.402;16.678;2023-01-09T04:06:30;47.03;;;22.57;;
19343;SDS011;9808;52.402;16.678;2023-01-09T04:08:57;47.87;;;21.53;;
19343;SDS011;9808;52.402;16.678;2023-01-09T04:11:24;50.67;;;21.80;;
19343;SDS011;9808;52.402;16.678;2023-01-09T04:13:52;44.80;;;21.10;;
19343;SDS011;9808;52.402;16.678;2023-01-09T04:16:19;50.90;;;21.93;;
19343;SDS011;9808;52.402;16.678;2023-01-09T04:18:46;47.83;;;21.20;;
19343;SDS011;9808;52.402;16.678;2023-01-09T04:21:13;48.40;;;22.57;;
19343;SDS011;9808;52.402;16.678;2023-01-09T04:23:40;43.93;;;22.13;;
19343;SDS011;9808;52.402;16.678;2023-01-09T04:26:08;49.90;;;21.87;;
19343;SDS011;9808;52.402;16.678;2023-01-09T04:28:35;52.00;;;21.77;;
19343;SDS011;9808;52.402;16.678;2023-01-09T04:31:02;52.20;;;22.57;;
19343;SDS011;9808;52.402;16.678;2023-01-09T04:33:30;46.00;;;21.07;;
19343;SDS011;9808;52.402;16.678;2023-01-09T04:35:57;44.97;;;20.57;;
19343;SDS011;9808;52.402;16.678;2023-01-09T04:38:24;46.50;;;20.40;;
19343;SDS011;9808;52.402;16.678;2023-01-09T04:40:52;42.60;;;18.80;;
19343;SDS011;9808;52.402;16.678;2023-01-09T04:43:19;44.00;;;20.43;;
19343;SDS011;9808;52.402;16.678;2023-01-09T04:45:47;46.63;;;20.87;;
19343;SDS011;9808;52.402;16.678;2023-01-09T04:48:14;43.87;;;19.87;;
19343;SDS011;9808;52.402;16.678;2023-01-09T04:50:42;47.07;;;19.67;;
19343;SDS011;9808;52.402;16.678;2023-01-09T04:53:09;41.33;;;19.77;;
19343;SDS011;9808;52.402;16.678;2023-01-09T04:55:36;43.83;;;19.30;;
19343;SDS011;9808;52.402;16.678;2023-01-09T04:58:03;39.77;;;18.83;;
19343;SDS011;9808;52.402;16.678;2023-01-09T05:00:31;40.23;;;19.03;;
19343;SDS011;9808;52.402;16.678;2023-01-09T05:02:58;44.67;;;19.43;;
19343;SDS011;9808;52.402;16.678;2023-01-09T05:05:27;37.00;;;17.80;;
19343;SDS011;9808;52.402;16.678;2023-01-09T05:07:55;41.37;;;18.73;;
19343;SDS011;9808;52.402;16.678;2023-01-09T05:10:22;51.37;;;20.67;;
19343;SDS011;9808;52.402;16.678;2023-01-09T05:12:49;42.33;;;19.00;;
19343;SDS011;9808;52.402;16.678;2023-01-09T05:15:17;38.47;;;18.20;;
19343;SDS011;9808;52.402;16.678;2023-01-09T05:17:44;42.37;;;19.47;;
19343;SDS011;9808;52.402;16.678;2023-01-09T05:20:12;47.97;;;19.67;;
19343;SDS011;9808;52.402;16.678;2023-01-09T05:22:39;42.07;;;20.40;;
19343;SDS011;9808;52.402;16.678;2023-01-09T05:25:06;42.57;;;18.83;;
19343;SDS011;9808;52.402;16.678;2023-01-09T05:27:33;46.13;;;19.37;;
19343;SDS011;9808;52.402;16.678;2023-01-09T05:30:01;45.43;;;19.27;;
19343;SDS011;9808;52.402;16.678;2023-01-09T05:32:28;48.40;;;20.30;;
19343;SDS011;9808;52.402;16.678;2023-01-09T05:34:55;38.40;;;18.47;;
19343;SDS011;9808;52.402;16.678;2023-01-09T05:37:22;48.97;;;20.57;;
19343;SDS011;9808;52.402;16.678;2023-01-09T05:39:49;43.80;;;20.47;;
19343;SDS011;9808;52.402;16.678;2023-01-09T05:42:17;43.37;;;20.47;;
19343;SDS011;9808;52.402;16.678;2023-01-09T05:44:44;50.57;;;20.67;;
19343;SDS011;9808;52.402;16.678;2023-01-09T05:47:11;43.27;;;19.63;;
19343;SDS011;9808;52.402;16.678;2023-01-09T05:49:38;47.77;;;20.57;;
19343;SDS011;9808;52.402;16.678;2023-01-09T05:52:06;48.27;;;21.23;;
19343;SDS011;9808;52.402;16.678;2023-01-09T05:54:36;44.57;;;20.90;;
19343;SDS011;9808;52.402;16.678;2023-01-09T05:57:03;37.53;;;19.63;;
19343;SDS011;9808;52.402;16.678;2023-01-09T05:59:31;45.73;;;21.17;;
19343;SDS011;9808;52.402;16.678;2023-01-09T06:01:58;53.70;;;22.33;;
19343;SDS011;9808;52.402;16.678;2023-01-09T06:04:25;47.80;;;22.33;;
19343;SDS011;9808;52.402;16.678;2023-01-09T06:06:55;44.53;;;20.57;;
19343;SDS011;9808;52.402;16.678;2023-01-09T06:09:22;46.23;;;21.90;;
19343;SDS011;9808;52.402;16.678;2023-01-09T06:11:49;51.37;;;22.13;;
19343;SDS011;9808;52.402;16.678;2023-01-09T06:14:17;55.77;;;22.77;;
19343;SDS011;9808;52.402;16.678;2023-01-09T06:16:44;45.33;;;20.50;;
19343;SDS011;9808;52.402;16.678;2023-01-09T06:19:11;45.27;;;20.87;;
19343;SDS011;9808;52.402;16.678;2023-01-09T06:21:39;44.27;;;20.47;;
19343;SDS011;9808;52.402;16.678;2023-01-09T06:24:06;52.33;;;20.60;;
19343;SDS011;9808;52.402;16.678;2023-01-09T06:26:33;48.87;;;21.67;;
19343;SDS011;9808;52.402;16.678;2023-01-09T06:29:00;51.17;;;22.37;;
19343;SDS011;9808;52.402;16.678;2023-01-09T06:31:28;46.43;;;21.90;;
19343;SDS011;9808;52.402;16.678;2023-01-09T06:33:55;44.97;;;20.63;;
19343;SDS011;9808;52.402;16.678;2023-01-09T06:36:22;46.80;;;21.37;;
19343;SDS011;9808;52.402;16.678;2023-01-09T06:38:50;46.70;;;22.40;;
19343;SDS011;9808;52.402;16.678;2023-01-09T06:41:17;54.77;;;23.73;;
19343;SDS011;9808;52.402;16.678;2023-01-09T06:43:44;46.23;;;21.37;;
19343;SDS011;9808;52.402;16.678;2023-01-09T06:46:11;44.00;;;21.33;;
19343;SDS011;9808;52.402;16.678;2023-01-09T06:48:39;48.93;;;22.57;;
19343;SDS011;9808;52.402;16.678;2023-01-09T06:51:06;51.07;;;23.10;;
19343;SDS011;9808;52.402;16.678;2023-01-09T06:53:33;47.27;;;20.97;;
19343;SDS011;9808;52.402;16.678;2023-01-09T06:56:01;45.33;;;21.57;;
19343;SDS011;9808;52.402;16.678;2023-01-09T06:58:28;48.23;;;22.00;;
19343;SDS011;9808;52.402;16.678;2023-01-09T07:00:57;42.53;;;20.87;;
19343;SDS011;9808;52.402;16.678;2023-01-09T07:03:24;44.93;;;20.87;;
19343;SDS011;9808;52.402;16.678;2023-01-09T07:05:51;51.87;;;23.40;;
19343;SDS011;9808;52.402;16.678;2023-01-09T07:08:18;44.53;;;21.10;;
19343;SDS011;9808;52.402;16.678;2023-01-09T07:10:46;46.13;;;21.37;;
19343;SDS011;9808;52.402;16.678;2023-01-09T07:13:13;43.03;;;19.97;;
19343;SDS011;9808;52.402;16.678;2023-01-09T07:15:40;50.57;;;22.33;;
19343;SDS011;9808;52.402;16.678;2023-01-09T07:18:07;45.97;;;20.57;;
19343;SDS011;9808;52.402;16.678;2023-01-09T07:20:34;51.00;;;21.13;;
19343;SDS011;9808;52.402;16.678;2023-01-09T07:23:02;52.10;;;22.57;;
19343;SDS011;9808;52.402;16.678;2023-01-09T07:25:29;49.47;;;21.57;;
19343;SDS011;9808;52.402;16.678;2023-01-09T07:27:56;48.33;;;23.03;;
19343;SDS011;9808;52.402;16.678;2023-01-09T07:30:23;49.97;;;23.53;;
19343;SDS011;9808;52.402;16.678;2023-01-09T07:32:51;52.83;;;24.37;;
19343;SDS011;9808;52.402;16.678;2023-01-09T07:35:19;54.73;;;26.03;;
19343;SDS011;9808;52.402;16.678;2023-01-09T07:37:46;49.13;;;23.47;;
19343;SDS011;9808;52.402;16.678;2023-01-09T07:40:13;55.83;;;25.30;;
19343;SDS011;9808;52.402;16.678;2023-01-09T07:42:40;56.23;;;25.07;;
19343;SDS011;9808;52.402;16.678;2023-01-09T07:45:07;56.33;;;26.33;;
19343;SDS011;9808;52.402;16.678;2023-01-09T07:47:35;59.67;;;27.20;;
19343;SDS011;9808;52.402;16.678;2023-01-09T07:50:02;59.57;;;26.93;;
19343;SDS011;9808;52.402;16.678;2023-01-09T07:52:29;54.07;;;25.40;;
19343;SDS011;9808;52.402;16.678;2023-01-09T07:54:56;55.07;;;24.87;;
19343;SDS011;9808;52.402;16.678;2023-01-09T07:57:24;62.77;;;27.07;;
19343;SDS011;9808;52.402;16.678;2023-01-09T07:59:51;53.70;;;26.93;;
19343;SDS011;9808;52.402;16.678;2023-01-09T08:02:18;63.07;;;29.00;;
19343;SDS011;9808;52.402;16.678;2023-01-09T08:04:46;64.20;;;29.17;;
19343;SDS011;9808;52.402;16.678;2023-01-09T08:07:13;57.50;;;27.13;;
19343;SDS011;9808;52.402;16.678;2023-01-09T08:09:40;62.67;;;29.03;;
19343;SDS011;9808;52.402;16.678;2023-01-09T08:12:07;63.47;;;28.93;;
19343;SDS011;9808;52.402;16.678;2023-01-09T08:14:35;62.27;;;28.33;;
19343;SDS011;9808;52.402;16.678;2023-01-09T08:17:02;59.53;;;27.13;;
19343;SDS011;9808;52.402;16.678;2023-01-09T08:19:29;64.47;;;28.27;;
19343;SDS011;9808;52.402;16.678;2023-01-09T08:21:56;60.70;;;28.87;;
19343;SDS011;9808;52.402;16.678;2023-01-09T08:24:23;64.23;;;29.07;;
19343;SDS011;9808;52.402;16.678;2023-01-09T08:26:51;60.53;;;28.73;;
19343;SDS011;9808;52.402;16.678;2023-01-09T08:29:18;58.43;;;28.57;;
19343;SDS011;9808;52.402;16.678;2023-01-09T08:31:45;60.70;;;28.53;;
19343;SDS011;9808;52.402;16.678;2023-01-09T08:34:12;62.13;;;28.10;;
19343;SDS011;9808;52.402;16.678;2023-01-09T08:36:40;67.07;;;27.90;;
19343;SDS011;9808;52.402;16.678;2023-01-09T08:39:07;57.37;;;28.70;;
19343;SDS011;9808;52.402;16.678;2023-01-09T08:41:35;64.07;;;29.77;;
19343;SDS011;9808;52.402;16.678;2023-01-09T08:44:21;57.63;;;28.13;;
19343;SDS011;9808;52.402;16.678;2023-01-09T08:47:07;60.70;;;28.20;;
19343;SDS011;9808;52.402;16.678;2023-01-09T08:49:35;58.53;;;28.77;;
19343;SDS011;9808;52.402;16.678;2023-01-09T08:52:03;64.23;;;28.30;;
19343;SDS011;9808;52.402;16.678;2023-01-09T08:54:30;62.80;;;28.73;;
19343;SDS011;9808;52.402;16.678;2023-01-09T08:56:57;61.20;;;28.20;;
19343;SDS011;9808;52.402;16.678;2023-01-09T08:59:25;60.73;;;27.37;;
19343;SDS011;9808;52.402;16.678;2023-01-09T09:01:52;60.60;;;27.03;;
19343;SDS011;9808;52.402;16.678;2023-01-09T09:04:19;55.00;;;26.57;;
19343;SDS011;9808;52.402;16.678;2023-01-09T09:06:47;61.03;;;27.07;;
19343;SDS011;9808;52.402;16.678;2023-01-09T09:09:14;56.73;;;25.93;;
19343;SDS011;9808;52.402;16.678;2023-01-09T09:11:41;58.20;;;26.33;;
19343;SDS011;9808;52.402;16.678;2023-01-09T09:14:08;57.97;;;26.03;;
19343;SDS011;9808;52.402;16.678;2023-01-09T09:16:54;54.40;;;26.20;;
19343;SDS011;9808;52.402;16.678;2023-01-09T09:19:21;54.93;;;26.77;;
19343;SDS011;9808;52.402;16.678;2023-01-09T09:21:48;59.13;;;27.63;;
19343;SDS011;9808;52.402;16.678;2023-01-09T09:24:16;65.97;;;28.87;;
19343;SDS011;9808;52.402;16.678;2023-01-09T09:26:43;65.57;;;30.20;;
19343;SDS011;9808;52.402;16.678;2023-01-09T09:29:10;66.33;;;31.13;;
19343;SDS011;9808;52.402;16.678;2023-01-09T09:31:38;80.60;;;32.60;;
19343;SDS011;9808;52.402;16.678;2023-01-09T09:34:05;77.57;;;32.77;;
19343;SDS011;9808;52.402;16.678;2023-01-09T09:36:33;66.23;;;30.67;;
19343;SDS011;9808;52.402;16.678;2023-01-09T09:39:00;77.07;;;32.63;;
19343;SDS011;9808;52.402;16.678;2023-01-09T09:44:21;72.17;;;30.97;;
19343;SDS011;9808;52.402;16.678;2023-01-09T10:00:54;62.10;;;31.83;;
19343;SDS011;9808;52.402;16.678;2023-01-09T10:03:37;65.83;;;32.07;;
19343;SDS011;9808;52.402;16.678;2023-01-09T10:06:20;65.43;;;31.73;;
19343;SDS011;9808;52.402;16.678;2023-01-09T10:11:26;68.23;;;32.77;;
19343;SDS011;9808;52.402;16.678;2023-01-09T10:13:56;68.30;;;32.30;;
19343;SDS011;9808;52.402;16.678;2023-01-09T10:19:14;63.50;;;29.60;;
19343;SDS011;9808;52.402;16.678;2023-01-09T10:21:48;64.87;;;31.23;;
19343;SDS011;9808;52.402;16.678;2023-01-09T10:26:58;66.80;;;30.47;;
19343;SDS011;9808;52.402;16.678;2023-01-09T10:32:06;64.87;;;32.10;;
19343;SDS011;9808;52.402;16.678;2023-01-09T10:34:53;67.77;;;31.73;;
19343;SDS011;9808;52.402;16.678;2023-01-09T10:37:43;71.27;;;32.53;;
19343;SDS011;9808;52.402;16.678;2023-01-09T10:47:39;73.03;;;35.27;;
19343;SDS011;9808;52.402;16.678;2023-01-09T10:50:42;75.70;;;35.20;;
19343;SDS011;9808;52.402;16.678;2023-01-09T10:53:04;69.87;;;33.93;;
19343;SDS011;9808;52.402;16.678;2023-01-09T10:55:41;73.07;;;34.47;;
19343;SDS011;9808;52.402;16.678;2023-01-09T10:58:11;76.60;;;34.87;;
19343;SDS011;9808;52.402;16.678;2023-01-09T11:00:38;68.93;;;32.13;;
19343;SDS011;9808;52.402;16.678;2023-01-09T11:03:10;71.20;;;31.83;;
19343;SDS011;9808;52.402;16.678;2023-01-09T11:05:38;63.70;;;30.50;;
19343;SDS011;9808;52.402;16.678;2023-01-09T11:10:55;63.47;;;32.13;;
19343;SDS011;9808;52.402;16.678;2023-01-09T11:18:39;65.97;;;32.33;;
19343;SDS011;9808;52.402;16.678;2023-01-09T11:21:35;77.53;;;34.20;;
19343;SDS011;9808;52.402;16.678;2023-01-09T11:26:48;64.40;;;33.30;;
19343;SDS011;9808;52.402;16.678;2023-01-09T11:29:16;68.97;;;31.67;;
19343;SDS011;9808;52.402;16.678;2023-01-09T11:31:51;66.23;;;32.37;;
19343;SDS011;9808;52.402;16.678;2023-01-09T11:34:20;59.70;;;30.40;;
19343;SDS011;9808;52.402;16.678;2023-01-09T11:36:49;63.37;;;31.13;;
19343;SDS011;9808;52.402;16.678;2023-01-09T11:39:27;67.87;;;30.77;;
19343;SDS011;9808;52.402;16.678;2023-01-09T11:41:59;70.13;;;31.40;;
19343;SDS011;9808;52.402;16.678;2023-01-09T11:44:27;74.63;;;35.17;;
19343;SDS011;9808;52.402;16.678;2023-01-09T11:46:55;74.67;;;36.27;;
19343;SDS011;9808;52.402;16.678;2023-01-09T11:49:24;80.80;;;36.97;;
19343;SDS011;9808;52.402;16.678;2023-01-09T11:54:31;76.30;;;32.27;;
19343;SDS011;9808;52.402;16.678;2023-01-09T11:57:00;78.53;;;32.07;;
19343;SDS011;9808;52.402;16.678;2023-01-09T11:59:27;63.97;;;30.07;;
19343;SDS011;9808;52.402;16.678;2023-01-09T12:04:42;81.03;;;34.73;;
19343;SDS011;9808;52.402;16.678;2023-01-09T12:12:55;65.43;;;30.03;;
19343;SDS011;9808;52.402;16.678;2023-01-09T12:21:01;82.70;;;33.90;;
19343;SDS011;9808;52.402;16.678;2023-01-09T12:31:23;52.60;;;26.33;;
19343;SDS011;9808;52.402;16.678;2023-01-09T12:36:48;54.67;;;25.73;;
19343;SDS011;9808;52.402;16.678;2023-01-09T12:39:26;55.20;;;26.37;;
19343;SDS011;9808;52.402;16.678;2023-01-09T12:42:04;53.77;;;26.90;;
19343;SDS011;9808;52.402;16.678;2023-01-09T12:44:47;62.43;;;27.57;;
19343;SDS011;9808;52.402;16.678;2023-01-09T12:52:30;59.07;;;27.87;;
19343;SDS011;9808;52.402;16.678;2023-01-09T12:55:00;56.77;;;28.93;;
19343;SDS011;9808;52.402;16.678;2023-01-09T12:57:32;58.67;;;27.30;;
19343;SDS011;9808;52.402;16.678;2023-01-09T13:02:59;58.13;;;28.70;;
19343;SDS011;9808;52.402;16.678;2023-01-09T13:05:44;58.60;;;26.83;;
19343;SDS011;9808;52.402;16.678;2023-01-09T13:08:14;57.77;;;27.93;;
19343;SDS011;9808;52.402;16.678;2023-01-09T13:10:44;58.23;;;27.50;;
19343;SDS011;9808;52.402;16.678;2023-01-09T13:13:27;59.07;;;28.47;;
19343;SDS011;9808;52.402;16.678;2023-01-09T13:15:57;60.93;;;27.67;;
19343;SDS011;9808;52.402;16.678;2023-01-09T13:18:31;65.00;;;29.37;;
19343;SDS011;9808;52.402;16.678;2023-01-09T13:20:59;76.07;;;35.13;;
19343;SDS011;9808;52.402;16.678;2023-01-09T13:23:32;79.70;;;34.67;;
19343;SDS011;9808;52.402;16.678;2023-01-09T13:26:05;67.53;;;30.37;;
19343;SDS011;9808;52.402;16.678;2023-01-09T13:28:55;70.63;;;32.43;;
19343;SDS011;9808;52.402;16.678;2023-01-09T13:33:56;70.77;;;33.23;;
19343;SDS011;9808;52.402;16.678;2023-01-09T13:36:28;67.43;;;33.13;;
19343;SDS011;9808;52.402;16.678;2023-01-09T13:38:58;68.53;;;34.63;;
19343;SDS011;9808;52.402;16.678;2023-01-09T13:41:26;74.67;;;35.97;;
19343;SDS011;9808;52.402;16.678;2023-01-09T13:44:25;67.60;;;32.50;;
19343;SDS011;9808;52.402;16.678;2023-01-09T13:46:59;63.70;;;30.27;;
19343;SDS011;9808;52.402;16.678;2023-01-09T13:51:55;61.57;;;30.17;;
19343;SDS011;9808;52.402;16.678;2023-01-09T13:57:30;58.40;;;26.53;;
19343;SDS011;9808;52.402;16.678;2023-01-09T14:08:00;64.50;;;26.60;;
19343;SDS011;9808;52.402;16.678;2023-01-09T14:10:29;53.63;;;24.90;;
19343;SDS011;9808;52.402;16.678;2023-01-09T14:12:57;53.70;;;26.20;;
19343;SDS011;9808;52.402;16.678;2023-01-09T14:17:58;55.37;;;25.90;;
19343;SDS011;9808;52.402;16.678;2023-01-09T14:20:35;75.43;;;33.50;;
19343;SDS011;9808;52.402;16.678;2023-01-09T14:23:03;87.00;;;38.47;;
19343;SDS011;9808;52.402;16.678;2023-01-09T14:25:51;78.33;;;39.27;;
19343;SDS011;9808;52.402;16.678;2023-01-09T14:28:23;59.00;;;29.60;;
19343;SDS011;9808;52.402;16.678;2023-01-09T14:35:54;59.97;;;29.00;;
19343;SDS011;9808;52.402;16.678;2023-01-09T14:41:00;53.87;;;27.53;;
19343;SDS011;9808;52.402;16.678;2023-01-09T14:43:40;56.80;;;27.27;;
19343;SDS011;9808;52.402;16.678;2023-01-09T14:46:12;57.37;;;25.53;;
19343;SDS011;9808;52.402;16.678;2023-01-09T14:48:44;61.40;;;27.73;;
19343;SDS011;9808;52.402;16.678;2023-01-09T14:51:17;58.20;;;28.57;;
19343;SDS011;9808;52.402;16.678;2023-01-09T14:53:46;56.23;;;26.33;;
19343;SDS011;9808;52.402;16.678;2023-01-09T14:56:25;56.87;;;26.07;;
19343;SDS011;9808;52.402;16.678;2023-01-09T14:59:12;62.77;;;27.80;;
19343;SDS011;9808;52.402;16.678;2023-01-09T15:01:41;66.80;;;27.30;;
19343;SDS011;9808;52.402;16.678;2023-01-09T15:04:32;60.77;;;26.43;;
19343;SDS011;9808;52.402;16.678;2023-01-09T15:07:00;68.33;;;28.17;;
19343;SDS011;9808;52.402;16.678;2023-01-09T15:11:56;75.97;;;37.80;;
19343;SDS011;9808;52.402;16.678;2023-01-09T15:14:34;76.10;;;35.60;;
19343;SDS011;9808;52.402;16.678;2023-01-09T15:17:05;67.20;;;30.77;;
19343;SDS011;9808;52.402;16.678;2023-01-09T15:19:33;65.33;;;30.23;;
19343;SDS011;9808;52.402;16.678;2023-01-09T15:22:02;60.23;;;27.73;;
19343;SDS011;9808;52.402;16.678;2023-01-09T15:24:30;62.97;;;26.90;;
19343;SDS011;9808;52.402;16.678;2023-01-09T15:27:00;58.17;;;27.17;;
19343;SDS011;9808;52.402;16.678;2023-01-09T15:29:28;56.40;;;25.27;;
19343;SDS011;9808;52.402;16.678;2023-01-09T15:31:57;54.27;;;25.90;;
19343;SDS011;9808;52.402;16.678;2023-01-09T15:34:26;52.93;;;24.97;;
19343;SDS011;9808;52.402;16.678;2023-01-09T15:36:54;50.57;;;23.30;;
19343;SDS011;9808;52.402;16.678;2023-01-09T15:39:26;50.13;;;23.30;;
19343;SDS011;9808;52.402;16.678;2023-01-09T15:41:53;47.47;;;22.63;;
19343;SDS011;9808;52.402;16.678;2023-01-09T15:44:40;44.23;;;21.30;;
19343;SDS011;9808;52.402;16.678;2023-01-09T15:47:13;45.40;;;22.03;;
19343;SDS011;9808;52.402;16.678;2023-01-09T15:49:41;45.03;;;21.03;;
19343;SDS011;9808;52.402;16.678;2023-01-09T15:52:10;45.80;;;20.33;;
19343;SDS011;9808;52.402;16.678;2023-01-09T15:54:41;43.23;;;20.90;;
19343;SDS011;9808;52.402;16.678;2023-01-09T15:59:54;44.97;;;19.37;;
19343;SDS011;9808;52.402;16.678;2023-01-09T16:02:22;44.13;;;20.10;;
19343;SDS011;9808;52.402;16.678;2023-01-09T16:05:12;49.83;;;20.77;;
19343;SDS011;9808;52.402;16.678;2023-01-09T16:07:47;43.37;;;19.50;;
19343;SDS011;9808;52.402;16.678;2023-01-09T16:10:52;46.83;;;20.53;;
19343;SDS011;9808;52.402;16.678;2023-01-09T16:13:12;45.40;;;19.87;;
19343;SDS011;9808;52.402;16.678;2023-01-09T16:15:42;39.33;;;19.57;;
19343;SDS011;9808;52.402;16.678;2023-01-09T16:20:43;39.93;;;19.30;;
19343;SDS011;9808;52.402;16.678;2023-01-09T16:25:44;38.83;;;19.43;;
19343;SDS011;9808;52.402;16.678;2023-01-09T16:28:16;40.23;;;19.23;;
19343;SDS011;9808;52.402;16.678;2023-01-09T16:31:05;44.07;;;19.27;;
19343;SDS011;9808;52.402;16.678;2023-01-09T16:33:34;43.50;;;20.00;;
19343;SDS011;9808;52.402;16.678;2023-01-09T16:36:01;45.10;;;20.63;;
19343;SDS011;9808;52.402;16.678;2023-01-09T16:38:30;41.77;;;19.70;;
19343;SDS011;9808;52.402;16.678;2023-01-09T16:43:44;47.17;;;20.80;;
19343;SDS011;9808;52.402;16.678;2023-01-09T16:46:13;45.63;;;20.77;;
19343;SDS011;9808;52.402;16.678;2023-01-09T16:48:41;45.40;;;21.70;;
19343;SDS011;9808;52.402;16.678;2023-01-09T16:51:15;37.47;;;18.50;;
19343;SDS011;9808;52.402;16.678;2023-01-09T16:53:42;41.00;;;18.43;;
19343;SDS011;9808;52.402;16.678;2023-01-09T16:56:28;36.97;;;18.03;;
19343;SDS011;9808;52.402;16.678;2023-01-09T16:58:55;34.57;;;17.83;;
19343;SDS011;9808;52.402;16.678;2023-01-09T17:01:23;33.03;;;16.93;;
19343;SDS011;9808;52.402;16.678;2023-01-09T17:03:51;33.53;;;17.20;;
19343;SDS011;9808;52.402;16.678;2023-01-09T17:08:48;38.77;;;18.37;;
19343;SDS011;9808;52.402;16.678;2023-01-09T17:11:20;34.87;;;16.87;;